Crookston, MN

5:13 AM CDT on June 28, 2017 (GMT -0500)
Crookston Municipal-Kirkwood

Weather History for KCKN - November, 2012

Change the Weather History Date:

Wednesday, November 7, 2012

  Actual Average Record
Temperature  
Mean Temperature 37 °F -  
Max Temperature 44 °F 36 °F 68 °F (1999)
Min Temperature 30 °F 22 °F -5 °F (2003)
Degree Days  
Heating Degree Days 28    
Moisture  
Dew Point 35 °F    
Average Humidity 88    
Maximum Humidity 100    
Minimum Humidity 71    
Precipitation  
Precipitation 0.00 in - - ()
Sea Level Pressure  
Sea Level Pressure 29.98 in    
Wind  
Wind Speed 7 mph (South)    
Max Wind Speed 24 mph    
Max Gust Speed 31 mph    
Visibility 8 miles    
Events Fog    
Averages and records for this station are not official NWS values.
T = Trace of Precipitation, MM = Missing Value Source: NWS Daily Summary

Daily Weather History Graph

Daily Weather History Graph

Search for Another Location

Airport or City:

Trip Planner

Search our weather history database for the weather conditions in past years. The results will help you decide how hot, cold, wet, or windy it might be!

Date:

Astronomy

Nov. 07, 2012 Rise Set
Actual Time 7:21 AM CST 4:58 PM CST
Civil Twilight 6:48 AM CST 5:31 PM CST
Nautical Twilight 6:10 AM CST 6:08 PM CST
Astronomical Twilight 5:34 AM CST 6:44 PM CST
Moon No Moon Rise 1:35 PM CST (11/7)
Length of Visible Light 10h 43m
Length of Day
9h 37m
Last Quarter, 43% of the Moon is Illuminated
Nov 7
Last Quarter
Nov 13
New
Nov 20
First Quarter
Nov 28
Full
Dec 6
Last Quarter

Hourly Weather History & Observations

Time (CST) Temp. Windchill Dew Point Humidity Pressure Visibility Wind Dir Wind Speed Gust Speed Precip Events Conditions
12:14 AM 39.2 °F 35.9 °F 37.4 °F 93% 30.03 in 10.0 mi North 4.6 mph - N/A   Overcast
12:34 AM 37.4 °F 34.9 °F 37.4 °F 100% 30.04 in 10.0 mi NNW 3.5 mph - N/A   Overcast
12:55 AM 37.4 °F 34.9 °F 37.4 °F 100% 30.04 in 10.0 mi NNW 3.5 mph - N/A   Overcast
1:15 AM 37.4 °F 34.9 °F 37.4 °F 100% 30.04 in 10.0 mi NW 3.5 mph - N/A   Overcast
1:34 AM 37.4 °F 34.9 °F 35.6 °F 93% 30.04 in 10.0 mi WNW 3.5 mph - N/A   Overcast
1:55 AM 37.4 °F 34.9 °F 37.4 °F 100% 30.05 in 10.0 mi West 3.5 mph - N/A   Overcast
2:14 AM 37.4 °F 33.8 °F 35.6 °F 93% 30.05 in 10.0 mi West 4.6 mph - N/A   Overcast
2:55 AM 37.4 °F 32.8 °F 35.6 °F 93% 30.06 in 10.0 mi WNW 5.8 mph - N/A   Overcast
3:14 AM 37.4 °F 33.8 °F 35.6 °F 93% 30.06 in 10.0 mi NW 4.6 mph - N/A   Overcast
3:34 AM 35.6 °F 30.7 °F 35.6 °F 100% 30.05 in 10.0 mi NW 5.8 mph - N/A   Mostly Cloudy
3:55 AM 35.6 °F 30.7 °F 33.8 °F 93% 30.06 in 10.0 mi WNW 5.8 mph - N/A   Scattered Clouds
4:14 AM 33.8 °F 28.6 °F 33.8 °F 100% 30.06 in 10.0 mi NW 5.8 mph - N/A   Clear
4:34 AM 33.8 °F 30.8 °F 33.8 °F 100% 30.05 in 10.0 mi NNW 3.5 mph - N/A   Clear
4:55 AM 33.8 °F - 33.8 °F 100% 30.06 in 7.0 mi Calm Calm - N/A   Clear
5:14 AM 32.0 °F 26.4 °F 30.2 °F 93% 30.07 in 5.0 mi WNW 5.8 mph - N/A   Clear
5:34 AM 32.0 °F 27.5 °F 32.0 °F 100% 30.07 in 7.0 mi NW 4.6 mph - N/A   Clear
5:55 AM 30.2 °F - 30.2 °F 100% 30.06 in 7.0 mi Calm Calm - N/A   Clear
6:14 AM 32.0 °F - 32.0 °F 100% 30.07 in 3.0 mi Calm Calm - N/A   Clear
6:34 AM 32.0 °F - 30.2 °F 93% 30.06 in 3.0 mi Calm Calm - N/A   Clear
6:55 AM 30.2 °F - 30.2 °F 100% 30.07 in 1.2 mi Calm Calm - N/A   Clear
7:14 AM 30.2 °F - 30.2 °F 100% 30.07 in 0.5 mi Calm Calm - N/A Fog Light Freezing Fog
7:35 AM 30.2 °F - 30.2 °F 100% 30.06 in 2.5 mi Calm Calm - N/A   Clear
7:55 AM 30.2 °F - 30.2 °F 100% 30.07 in 1.8 mi Calm Calm - N/A   Clear
8:14 AM 30.2 °F - 30.2 °F 100% 30.08 in 1.8 mi Calm Calm - N/A   Clear
8:35 AM 32.0 °F - 32.0 °F 100% 30.07 in 2.5 mi Calm Calm - N/A   Clear
8:55 AM 33.8 °F - 33.8 °F 100% 30.09 in 7.0 mi Calm Calm - N/A   Clear
9:14 AM 35.6 °F - 33.8 °F 93% 30.08 in 10.0 mi Calm Calm - N/A   Clear
9:35 AM 35.6 °F - 33.8 °F 93% 30.08 in 10.0 mi Calm Calm - N/A   Scattered Clouds
9:55 AM 35.6 °F - 35.6 °F 100% 30.08 in 10.0 mi Calm Calm - N/A   Overcast
10:14 AM 37.4 °F 32.8 °F 35.6 °F 93% 30.07 in 7.0 mi SE 5.8 mph - N/A   Overcast
10:35 AM 35.6 °F 29.9 °F 35.6 °F 100% 30.07 in 0.2 mi ESE 6.9 mph - N/A Fog Fog
10:55 AM 35.6 °F 29.2 °F 35.6 °F 100% 30.06 in 0.2 mi SE 8.1 mph - N/A Fog Fog
11:14 AM 37.4 °F 32.1 °F 35.6 °F 93% 30.06 in 1.2 mi SE 6.9 mph - N/A   Overcast
11:35 AM 37.4 °F 32.1 °F 37.4 °F 100% 30.05 in 10.0 mi SE 6.9 mph - N/A   Overcast
11:55 AM 39.2 °F 35.0 °F 37.4 °F 93% 30.04 in 10.0 mi SE 5.8 mph - N/A   Mostly Cloudy
12:14 PM 39.2 °F 35.0 °F 37.4 °F 93% 30.03 in 10.0 mi SSE 5.8 mph - N/A   Mostly Cloudy
12:35 PM 41.0 °F 35.8 °F 37.4 °F 87% 30.02 in 10.0 mi South 8.1 mph - N/A   Mostly Cloudy
12:55 PM 42.8 °F 36.2 °F 37.4 °F 81% 30.00 in 10.0 mi South 12.7 mph - N/A   Mostly Cloudy
1:14 PM 42.8 °F 37.5 °F 37.4 °F 81% 29.99 in 10.0 mi South 9.2 mph - N/A   Scattered Clouds
1:35 PM 42.8 °F 37.5 °F 37.4 °F 81% 29.98 in 10.0 mi South 9.2 mph - N/A   Mostly Cloudy
1:55 PM 42.8 °F 36.6 °F 37.4 °F 81% 29.98 in 10.0 mi South 11.5 mph - N/A   Mostly Cloudy
2:14 PM 42.8 °F 36.2 °F 37.4 °F 81% 29.97 in 10.0 mi South 12.7 mph - N/A   Scattered Clouds
2:35 PM 42.8 °F 37.0 °F 37.4 °F 81% 29.96 in 10.0 mi South 10.4 mph - N/A   Scattered Clouds
2:55 PM 44.6 °F 39.2 °F 37.4 °F 76% 29.95 in 10.0 mi South 10.4 mph - N/A   Clear
3:14 PM 44.6 °F 39.2 °F 37.4 °F 76% 29.95 in 10.0 mi South 10.4 mph - N/A   Clear
3:40 PM 44.6 °F 38.4 °F 37.4 °F 76% 29.94 in 10.0 mi South 12.7 mph - N/A   Clear
3:55 PM 44.6 °F 38.8 °F 37.4 °F 76% 29.94 in 10.0 mi South 11.5 mph - N/A   Clear
4:14 PM 44.6 °F 38.8 °F 37.4 °F 76% 29.93 in 10.0 mi South 11.5 mph - N/A   Clear
4:35 PM 42.8 °F 37.0 °F 37.4 °F 81% 29.93 in 10.0 mi South 10.4 mph - N/A   Clear
4:54 PM 42.8 °F 37.5 °F 37.4 °F 81% 29.92 in 10.0 mi South 9.2 mph - N/A   Clear
5:14 PM 42.8 °F 38.6 °F 37.4 °F 81% 29.92 in 10.0 mi SSE 6.9 mph - N/A   Scattered Clouds
5:35 PM 42.8 °F 36.2 °F 37.4 °F 81% 29.90 in 10.0 mi SSE 12.7 mph - N/A   Scattered Clouds
5:54 PM 42.8 °F 35.8 °F 35.6 °F 76% 29.89 in 10.0 mi South 13.8 mph - N/A   Clear
6:14 PM 41.0 °F 33.5 °F 35.6 °F 81% 29.88 in 10.0 mi SSE 13.8 mph - N/A   Clear
6:35 PM 42.8 °F 36.2 °F 35.6 °F 76% 29.88 in 10.0 mi SSE 12.7 mph - N/A   Clear
6:54 PM 41.0 °F 33.1 °F 35.6 °F 81% 29.87 in 10.0 mi South 15.0 mph - N/A   Clear
7:14 PM 42.8 °F 34.8 °F 35.6 °F 76% 29.86 in 10.0 mi South 17.3 mph - N/A   Clear
7:35 PM 41.0 °F 32.5 °F 35.6 °F 81% 29.85 in 10.0 mi SSE 17.3 mph - N/A   Clear
7:54 PM 42.8 °F 34.8 °F 35.6 °F 76% 29.84 in 10.0 mi SSE 17.3 mph 25.3 mph N/A   Clear
8:14 PM 42.8 °F 35.1 °F 35.6 °F 76% 29.84 in 10.0 mi South 16.1 mph - N/A   Clear
8:35 PM 42.8 °F 34.3 °F 35.6 °F 76% 29.83 in 10.0 mi South 19.6 mph - N/A   Clear
8:54 PM 42.8 °F 34.3 °F 35.6 °F 76% 29.83 in 10.0 mi South 19.6 mph 25.3 mph N/A   Scattered Clouds
9:14 PM 42.8 °F 34.5 °F 35.6 °F 76% 29.84 in 10.0 mi South 18.4 mph - N/A   Clear
9:35 PM 42.8 °F 35.1 °F 35.6 °F 76% 29.84 in 10.0 mi South 16.1 mph - N/A   Clear
9:54 PM 42.8 °F 35.4 °F 35.6 °F 76% 29.84 in 10.0 mi South 15.0 mph - N/A   Scattered Clouds
10:15 PM 42.8 °F 34.3 °F 37.4 °F 81% 29.82 in 10.0 mi South 19.6 mph 24.2 mph N/A   Scattered Clouds
10:35 PM 42.8 °F 33.8 °F 35.6 °F 76% 29.82 in 10.0 mi South 21.9 mph 25.3 mph N/A   Scattered Clouds
10:54 PM 42.8 °F 34.0 °F 35.6 °F 76% 29.81 in 10.0 mi South 20.7 mph 27.6 mph N/A   Clear
11:15 PM 44.6 °F 35.7 °F 35.6 °F 71% 29.80 in 10.0 mi South 24.2 mph 31.1 mph N/A   Scattered Clouds
11:34 PM 44.6 °F 36.4 °F 35.6 °F 71% 29.80 in 10.0 mi South 20.7 mph - N/A   Scattered Clouds
11:54 PM 44.6 °F 36.6 °F 35.6 °F 71% 29.79 in 10.0 mi South 19.6 mph - N/A   Scattered Clouds